Time;durP1;ratioP1;P1;durP2;ratioP2;P2;SDS_P1;SDS_P2;PMS_P1;PMS_P2;Temp;Humidity;BMP_temperature;BMP_pressure;BME280_temperature;BME280_humidity;BME280_pressure;Samples;Min_cycle;Max_cycle;Signal;HPM_P1;HPM_P2
2021/12/09 00:00:35;;;;;;;47.20;24.43;;;1.30;99.90;;;;;;5117484;28;20453;-68
2021/12/09 00:03:05;;;;;;;50.17;25.83;;;1.40;99.90;;;;;;5117496;28;20440;-68
2021/12/09 00:05:33;;;;;;;45.07;23.97;;;1.30;99.90;;;;;;5117280;28;20805;-68
2021/12/09 00:08:00;;;;;;;54.07;24.80;;;1.30;99.90;;;;;;5117435;28;20735;-68
2021/12/09 00:10:28;;;;;;;46.93;24.20;;;1.20;99.90;;;;;;5117085;28;20453;-68
2021/12/09 00:12:55;;;;;;;46.57;24.70;;;1.20;99.90;;;;;;5117236;28;20457;-68
2021/12/09 00:15:23;;;;;;;49.23;24.70;;;1.30;99.90;;;;;;5116978;28;20927;-68
2021/12/09 00:17:50;;;;;;;47.63;26.20;;;1.30;99.90;;;;;;5116965;28;20877;-68
2021/12/09 00:20:18;;;;;;;50.83;26.20;;;1.30;99.90;;;;;;5116944;28;20463;-67
2021/12/09 00:22:45;;;;;;;49.77;26.13;;;1.30;99.90;;;;;;5116921;28;20912;-68
2021/12/09 00:25:13;;;;;;;50.50;26.70;;;1.40;99.90;;;;;;5116832;28;20452;-68
2021/12/09 00:27:40;;;;;;;51.17;24.10;;;1.40;99.90;;;;;;5116942;28;20967;-68
2021/12/09 00:30:10;;;;;;;57.20;27.50;;;1.40;99.90;;;;;;5116882;28;20904;-68
2021/12/09 00:32:40;;;;;;;51.80;25.30;;;1.30;99.90;;;;;;5117280;28;20472;-68
2021/12/09 00:35:10;;;;;;;60.10;27.27;;;1.30;99.90;;;;;;5117024;28;20452;-68
2021/12/09 00:37:40;;;;;;;45.57;26.67;;;1.30;99.90;;;;;;5116580;28;20520;-68
2021/12/09 00:40:09;;;;;;;50.00;26.30;;;1.30;99.90;;;;;;5116818;28;20495;-68
2021/12/09 00:42:37;;;;;;;54.47;26.70;;;1.30;99.90;;;;;;5116517;28;20488;-68
2021/12/09 00:45:05;;;;;;;51.70;25.70;;;1.30;99.90;;;;;;5116658;28;20444;-68
2021/12/09 00:47:32;;;;;;;50.67;27.17;;;1.30;99.90;;;;;;5116366;28;20844;-68
2021/12/09 00:50:00;;;;;;;52.40;26.43;;;1.30;99.90;;;;;;5116597;28;20456;-68
2021/12/09 00:52:27;;;;;;;59.60;28.10;;;1.30;99.90;;;;;;5116575;28;20548;-68
2021/12/09 00:54:56;;;;;;;59.43;28.07;;;1.30;99.90;;;;;;5116524;28;20496;-69
2021/12/09 00:57:23;;;;;;;51.37;27.03;;;1.30;99.90;;;;;;5116481;28;20731;-68
2021/12/09 00:59:50;;;;;;;55.63;26.27;;;1.30;99.90;;;;;;5116509;28;20757;-68
2021/12/09 01:02:17;;;;;;;50.07;26.17;;;1.30;99.90;;;;;;5116127;28;20779;-68
2021/12/09 01:04:46;;;;;;;51.67;26.90;;;1.20;99.90;;;;;;5116161;28;20790;-68
2021/12/09 01:07:15;;;;;;;50.97;26.57;;;1.20;99.90;;;;;;5116283;28;20464;-68
2021/12/09 01:09:42;;;;;;;54.23;26.50;;;1.20;99.90;;;;;;5115477;28;20457;-68
2021/12/09 01:12:09;;;;;;;55.27;28.50;;;1.10;99.90;;;;;;5116144;28;20483;-68
2021/12/09 01:14:37;;;;;;;53.83;27.23;;;1.10;99.90;;;;;;5115947;28;20759;-68
2021/12/09 01:17:04;;;;;;;55.47;28.37;;;1.10;99.90;;;;;;5116191;28;20555;-68
2021/12/09 01:19:31;;;;;;;59.37;28.63;;;1.20;99.90;;;;;;5116244;28;20460;-70
2021/12/09 01:21:58;;;;;;;47.37;24.60;;;1.10;99.90;;;;;;5116056;28;20448;-68
2021/12/09 01:24:26;;;;;;;51.20;27.17;;;1.20;99.90;;;;;;5115935;28;20490;-68
2021/12/09 01:26:53;;;;;;;63.93;28.10;;;1.20;99.90;;;;;;5116205;28;20793;-67
2021/12/09 01:29:29;;;;;;;59.60;27.37;;;1.20;99.90;;;;;;5116039;28;20545;-67
2021/12/09 01:32:00;;;;;;;61.40;28.30;;;1.20;99.90;;;;;;5116032;28;20465;-68
2021/12/09 01:34:27;;;;;;;58.33;27.93;;;1.10;99.90;;;;;;5116079;28;20952;-68
2021/12/09 01:36:54;;;;;;;64.80;30.30;;;1.10;99.90;;;;;;5115827;28;20456;-68
2021/12/09 01:39:22;;;;;;;53.40;26.80;;;1.20;99.90;;;;;;5116290;28;20456;-68
2021/12/09 01:41:51;;;;;;;56.83;28.87;;;1.20;99.90;;;;;;5116586;28;20453;-68
2021/12/09 01:44:17;;;;;;;60.63;30.47;;;1.10;99.90;;;;;;5115906;28;20502;-67
2021/12/09 01:46:44;;;;;;;61.53;29.50;;;1.20;99.90;;;;;;5115908;28;20463;-68
2021/12/09 01:49:11;;;;;;;52.40;28.03;;;1.20;99.90;;;;;;5115969;28;20460;-68
2021/12/09 01:51:40;;;;;;;59.90;29.70;;;1.20;99.90;;;;;;5116308;28;20488;-68
2021/12/09 01:54:07;;;;;;;55.20;30.33;;;1.30;99.90;;;;;;5117027;28;20453;-68
2021/12/09 01:56:34;;;;;;;53.33;27.27;;;1.30;99.90;;;;;;5116892;28;20475;-68
2021/12/09 01:59:06;;;;;;;57.70;27.30;;;1.20;99.90;;;;;;5118182;28;20456;-68
2021/12/09 02:01:34;;;;;;;61.43;28.13;;;1.20;99.90;;;;;;5118368;28;20445;-67
2021/12/09 02:04:03;;;;;;;50.17;28.50;;;1.20;99.90;;;;;;5117185;28;20456;-67
2021/12/09 02:06:31;;;;;;;54.00;29.03;;;1.20;99.90;;;;;;5116497;28;20768;-68
2021/12/09 02:08:58;;;;;;;49.87;27.60;;;1.20;99.90;;;;;;5116180;28;20467;-68
2021/12/09 02:11:25;;;;;;;56.30;28.67;;;1.20;99.90;;;;;;5115698;28;20476;-68
2021/12/09 02:13:56;;;;;;;55.87;29.60;;;1.20;99.90;;;;;;5116080;28;20452;-68
2021/12/09 02:16:24;;;;;;;54.53;29.10;;;1.20;99.90;;;;;;5116622;28;20453;-69
2021/12/09 02:18:51;;;;;;;50.27;27.90;;;1.20;99.90;;;;;;5116628;28;20452;-69
2021/12/09 02:21:21;;;;;;;62.70;29.23;;;1.20;99.90;;;;;;5115111;28;20448;-69
2021/12/09 02:23:50;;;;;;;57.37;28.67;;;1.20;99.90;;;;;;5115064;28;20456;-70
2021/12/09 02:26:19;;;;;;;58.50;28.60;;;1.10;99.90;;;;;;5115179;28;20463;-70
2021/12/09 02:28:47;;;;;;;51.77;27.03;;;1.10;99.90;;;;;;5115054;28;20456;-68
2021/12/09 02:31:14;;;;;;;65.07;28.57;;;1.10;99.90;;;;;;5114765;28;20464;-68
2021/12/09 02:33:41;;;;;;;53.90;28.43;;;1.10;99.90;;;;;;5114358;28;20485;-67
2021/12/09 02:36:08;;;;;;;53.70;27.70;;;1.10;99.90;;;;;;5114876;28;20456;-69
2021/12/09 02:38:43;;;;;;;56.27;29.50;;;1.10;99.90;;;;;;5114654;28;20453;-68
2021/12/09 02:41:14;;;;;;;59.27;29.23;;;1.10;99.90;;;;;;5114300;28;20461;-68
2021/12/09 02:43:42;;;;;;;49.60;27.53;;;1.00;99.90;;;;;;5114432;28;20488;-68
2021/12/09 02:46:08;;;;;;;61.17;28.37;;;1.00;99.90;;;;;;5114555;28;20452;-69
2021/12/09 02:48:35;;;;;;;56.60;28.40;;;1.00;99.90;;;;;;5114647;28;20901;-68
2021/12/09 02:51:03;;;;;;;64.47;29.70;;;1.10;99.90;;;;;;5114857;28;20459;-68
2021/12/09 02:53:31;;;;;;;52.00;27.97;;;1.10;99.90;;;;;;5115049;28;20456;-68
2021/12/09 02:55:59;;;;;;;53.63;28.83;;;1.10;99.90;;;;;;5114454;28;20935;-68
2021/12/09 02:58:26;;;;;;;51.77;27.43;;;1.10;99.90;;;;;;5114765;28;20469;-68
2021/12/09 03:00:57;;;;;;;64.53;29.90;;;1.10;99.90;;;;;;5114606;28;20456;-68
2021/12/09 03:03:24;;;;;;;55.50;28.73;;;1.10;99.90;;;;;;5114479;28;20440;-67
2021/12/09 03:05:53;;;;;;;58.30;28.50;;;1.10;99.90;;;;;;5114498;28;20460;-70
2021/12/09 03:08:29;;;;;;;58.50;29.03;;;1.10;99.90;;;;;;5114495;28;20529;-68
2021/12/09 03:10:56;;;;;;;56.63;28.17;;;1.10;99.90;;;;;;5114977;28;20432;-67
2021/12/09 03:13:24;;;;;;;62.13;28.40;;;1.10;99.90;;;;;;5114497;28;20487;-68
2021/12/09 03:15:51;;;;;;;59.20;29.90;;;1.10;99.90;;;;;;5114496;28;20452;-68
2021/12/09 03:18:18;;;;;;;57.97;28.10;;;1.00;99.90;;;;;;5115004;28;20468;-68
2021/12/09 03:20:45;;;;;;;55.43;27.40;;;1.00;99.90;;;;;;5115583;28;20484;-68
2021/12/09 03:23:11;;;;;;;57.90;28.87;;;1.00;99.90;;;;;;5115073;28;20456;-68
2021/12/09 03:25:38;;;;;;;57.50;28.60;;;0.90;99.90;;;;;;5114476;28;20468;-68
2021/12/09 03:28:05;;;;;;;59.40;30.50;;;1.00;99.90;;;;;;5114376;28;20456;-68
2021/12/09 03:30:33;;;;;;;56.47;29.00;;;1.00;99.90;;;;;;5114031;28;20485;-68
2021/12/09 03:33:01;;;;;;;55.57;28.80;;;1.00;99.90;;;;;;5117363;28;20477;-68
2021/12/09 03:35:27;;;;;;;56.13;28.70;;;1.00;99.90;;;;;;5117882;28;20466;-68
2021/12/09 03:37:54;;;;;;;54.03;27.17;;;1.00;99.90;;;;;;5117657;28;20467;-68
2021/12/09 03:40:21;;;;;;;57.03;29.07;;;1.00;99.90;;;;;;5117883;28;20836;-68
2021/12/09 03:42:48;;;;;;;69.83;31.80;;;0.90;99.90;;;;;;5117636;28;20476;-68
2021/12/09 03:45:16;;;;;;;63.53;29.43;;;0.90;99.90;;;;;;5117718;28;20456;-68
2021/12/09 03:47:45;;;;;;;60.17;30.60;;;0.90;99.90;;;;;;5118007;28;20823;-68
2021/12/09 03:50:15;;;;;;;58.80;29.03;;;1.00;99.90;;;;;;5117740;28;20463;-68
2021/12/09 03:52:42;;;;;;;59.13;29.83;;;1.00;99.90;;;;;;5117979;28;20531;-68
2021/12/09 03:55:09;;;;;;;54.27;28.60;;;1.00;99.90;;;;;;5117542;28;20543;-68
2021/12/09 03:57:37;;;;;;;59.67;31.50;;;1.10;99.90;;;;;;5118102;28;20460;-68
2021/12/09 04:00:06;;;;;;;66.17;32.37;;;1.10;99.90;;;;;;5117371;28;20456;-68
2021/12/09 04:02:33;;;;;;;55.03;28.90;;;1.10;99.90;;;;;;5117760;28;20969;-68
2021/12/09 04:05:01;;;;;;;62.13;28.27;;;1.10;99.90;;;;;;5117638;28;20457;-68
2021/12/09 04:07:27;;;;;;;54.93;26.83;;;1.00;99.90;;;;;;5117326;28;20456;-68
2021/12/09 04:09:54;;;;;;;57.97;30.47;;;1.00;99.90;;;;;;5117281;28;20832;-68
2021/12/09 04:12:21;;;;;;;57.23;30.90;;;1.00;99.90;;;;;;5117321;28;20487;-68
2021/12/09 04:14:48;;;;;;;56.87;28.90;;;1.00;99.90;;;;;;5117254;28;20562;-69
2021/12/09 04:17:15;;;;;;;51.67;27.67;;;1.10;99.90;;;;;;5117484;28;20456;-69
2021/12/09 04:19:47;;;;;;;60.87;29.10;;;1.10;99.90;;;;;;5117137;28;20908;-68
2021/12/09 04:22:16;;;;;;;60.37;29.30;;;1.10;99.90;;;;;;5117250;28;20433;-68
2021/12/09 04:24:43;;;;;;;56.87;29.70;;;1.10;99.90;;;;;;5117263;28;20456;-68
2021/12/09 04:27:10;;;;;;;58.43;28.60;;;1.10;99.90;;;;;;5117029;28;20475;-68
2021/12/09 04:29:37;;;;;;;54.50;29.40;;;1.10;99.90;;;;;;5117619;28;20521;-69
2021/12/09 04:32:05;;;;;;;61.67;29.60;;;1.10;99.90;;;;;;5117710;28;20487;-68
2021/12/09 04:34:32;;;;;;;52.23;27.97;;;1.10;99.90;;;;;;5117848;28;20464;-68
2021/12/09 04:36:59;;;;;;;61.57;29.90;;;1.10;99.90;;;;;;5117570;28;20456;-68
2021/12/09 04:39:28;;;;;;;59.10;32.83;;;1.10;99.90;;;;;;5117653;28;20509;-68
2021/12/09 04:41:55;;;;;;;52.87;28.30;;;1.10;99.90;;;;;;5117078;28;20940;-68
2021/12/09 04:44:22;;;;;;;59.40;31.67;;;1.00;99.90;;;;;;5116200;28;20480;-68
2021/12/09 04:46:49;;;;;;;59.30;30.17;;;1.10;99.90;;;;;;5116971;28;20452;-67
2021/12/09 04:49:16;;;;;;;56.70;27.30;;;1.00;99.90;;;;;;5116401;28;20461;-68
2021/12/09 04:51:43;;;;;;;57.80;28.17;;;1.00;99.90;;;;;;5116604;28;20456;-67
2021/12/09 04:54:10;;;;;;;52.30;27.47;;;1.00;99.90;;;;;;5116760;28;20927;-67
2021/12/09 04:56:38;;;;;;;50.90;27.37;;;1.00;99.90;;;;;;5116388;28;20452;-67
2021/12/09 04:59:06;;;;;;;52.47;28.47;;;1.00;99.90;;;;;;5116192;28;20452;-68
2021/12/09 05:01:34;;;;;;;59.63;29.03;;;1.00;99.90;;;;;;5115635;28;20445;-68
2021/12/09 05:04:02;;;;;;;54.23;27.70;;;1.00;99.90;;;;;;5116267;28;20905;-68
2021/12/09 05:06:29;;;;;;;54.07;28.80;;;1.00;99.90;;;;;;5116458;28;20456;-68
2021/12/09 05:08:56;;;;;;;55.63;29.20;;;1.00;99.90;;;;;;5115836;28;20452;-69
2021/12/09 05:11:32;;;;;;;57.23;27.50;;;1.00;99.90;;;;;;5116119;28;20505;-69
2021/12/09 05:14:01;;;;;;;54.10;28.73;;;0.90;99.90;;;;;;5116246;28;20813;-68
2021/12/09 05:16:28;;;;;;;55.63;26.97;;;0.90;99.90;;;;;;5116029;28;20457;-68
2021/12/09 05:18:58;;;;;;;56.33;27.70;;;0.80;99.90;;;;;;5115681;28;20558;-68
2021/12/09 05:21:28;;;;;;;51.83;28.60;;;0.80;99.90;;;;;;5116164;28;20466;-68
2021/12/09 05:23:55;;;;;;;58.07;27.80;;;0.90;99.90;;;;;;5115867;28;20460;-68
2021/12/09 05:26:25;;;;;;;59.70;28.17;;;0.90;99.90;;;;;;5116062;28;20795;-68
2021/12/09 05:28:55;;;;;;;56.27;27.90;;;1.00;99.90;;;;;;5115795;28;20455;-68
2021/12/09 05:34:09;;;;;;;59.93;27.33;;;1.10;99.90;;;;;;5115634;28;20464;-68
2021/12/09 05:36:36;;;;;;;61.90;29.07;;;1.10;99.90;;;;;;5115536;28;20467;-68
2021/12/09 05:39:04;;;;;;;59.87;27.90;;;1.10;99.90;;;;;;5115561;27;20456;-68
2021/12/09 05:41:33;;;;;;;50.53;28.47;;;1.00;99.90;;;;;;5115709;28;20460;-68
2021/12/09 05:44:01;;;;;;;56.03;27.80;;;1.00;99.90;;;;;;5115594;28;20476;-68
2021/12/09 05:46:29;;;;;;;51.33;27.40;;;1.00;99.90;;;;;;5115211;28;20467;-67
2021/12/09 05:48:56;;;;;;;56.43;26.73;;;1.00;99.90;;;;;;5115548;28;20460;-68
2021/12/09 05:51:24;;;;;;;52.63;25.10;;;1.00;99.90;;;;;;5115604;28;20456;-68
2021/12/09 05:53:50;;;;;;;62.70;28.07;;;1.00;99.90;;;;;;5115285;28;20936;-68
2021/12/09 05:56:17;;;;;;;57.43;28.90;;;1.10;99.90;;;;;;5115869;28;20473;-68
2021/12/09 05:58:44;;;;;;;54.37;26.40;;;1.10;99.90;;;;;;5115540;28;20460;-68
2021/12/09 06:01:11;;;;;;;57.47;29.63;;;1.10;99.90;;;;;;5115506;27;20474;-68
2021/12/09 06:03:39;;;;;;;59.03;27.93;;;1.10;99.90;;;;;;5115435;28;20463;-68
2021/12/09 06:06:06;;;;;;;57.40;28.80;;;1.10;99.90;;;;;;5114889;28;20453;-69
2021/12/09 06:08:36;;;;;;;54.27;27.00;;;1.20;99.90;;;;;;5114659;28;20467;-67
2021/12/09 06:11:03;;;;;;;61.93;27.80;;;1.10;99.90;;;;;;5114999;28;20494;-68
2021/12/09 06:13:32;;;;;;;56.63;28.57;;;1.10;99.90;;;;;;5114655;28;20492;-68
2021/12/09 06:15:59;;;;;;;57.53;27.97;;;1.20;99.90;;;;;;5114630;28;20453;-67
2021/12/09 06:18:26;;;;;;;54.27;27.60;;;1.20;99.90;;;;;;5115049;28;20925;-67
2021/12/09 06:20:54;;;;;;;51.77;27.27;;;1.10;99.90;;;;;;5115153;28;20460;-68
2021/12/09 06:23:21;;;;;;;67.60;33.20;;;1.10;99.90;;;;;;5115078;28;20452;-68
2021/12/09 06:25:49;;;;;;;57.87;30.10;;;1.10;99.90;;;;;;5114867;28;20456;-68
2021/12/09 06:28:17;;;;;;;63.20;29.53;;;1.20;99.90;;;;;;5114848;28;20517;-68
2021/12/09 06:30:44;;;;;;;66.83;32.13;;;1.10;99.90;;;;;;5114637;28;20820;-68
2021/12/09 06:33:10;;;;;;;59.53;28.17;;;1.10;99.90;;;;;;5114949;28;20483;-68
2021/12/09 06:35:38;;;;;;;64.97;30.20;;;1.10;99.90;;;;;;5114916;28;20467;-67
2021/12/09 06:38:10;;;;;;;58.70;29.37;;;1.20;99.90;;;;;;5114714;28;20461;-68
2021/12/09 06:40:37;;;;;;;57.80;29.53;;;1.20;99.90;;;;;;5114746;28;20436;-69
2021/12/09 06:43:04;;;;;;;77.67;30.60;;;1.20;99.90;;;;;;5114761;28;20476;-68
2021/12/09 06:45:32;;;;;;;52.40;26.90;;;1.20;99.90;;;;;;5114848;28;20449;-69
2021/12/09 06:47:59;;;;;;;61.70;29.57;;;1.30;99.90;;;;;;5114997;28;20860;-68
2021/12/09 06:50:26;;;;;;;54.40;27.90;;;1.30;99.90;;;;;;5114185;28;20460;-68
2021/12/09 06:52:53;;;;;;;62.03;28.43;;;1.30;99.90;;;;;;5114503;28;20590;-68
2021/12/09 06:55:22;;;;;;;57.27;28.90;;;1.30;99.90;;;;;;5115661;28;20452;-68
2021/12/09 06:57:49;;;;;;;54.10;27.33;;;1.20;99.90;;;;;;5114521;28;20897;-68
2021/12/09 07:00:18;;;;;;;57.87;28.83;;;1.20;99.90;;;;;;5114192;28;20509;-68
2021/12/09 07:02:45;;;;;;;54.93;29.80;;;1.20;99.90;;;;;;5114411;28;20463;-69
2021/12/09 07:05:14;;;;;;;54.87;28.53;;;1.20;99.90;;;;;;5114617;28;20763;-68
2021/12/09 07:07:40;;;;;;;65.23;30.43;;;1.10;99.90;;;;;;5116002;28;20463;-68
2021/12/09 07:10:10;;;;;;;132.53;59.97;;;1.10;99.90;;;;;;5118733;28;20755;-69
2021/12/09 07:12:38;;;;;;;66.40;32.77;;;1.10;99.90;;;;;;5118385;28;20463;-69
2021/12/09 07:15:08;;;;;;;55.90;28.40;;;1.10;99.90;;;;;;5117982;28;20460;-67
2021/12/09 07:17:35;;;;;;;61.70;30.47;;;1.10;99.90;;;;;;5118378;27;20808;-68
2021/12/09 07:20:04;;;;;;;63.40;31.13;;;1.10;99.90;;;;;;5118268;28;20460;-68
2021/12/09 07:22:30;;;;;;;64.23;30.97;;;1.10;99.90;;;;;;5118279;27;20783;-68
2021/12/09 07:24:57;;;;;;;66.27;30.80;;;1.10;99.90;;;;;;5117857;28;20460;-68
2021/12/09 07:27:24;;;;;;;69.53;29.47;;;1.10;99.90;;;;;;5118224;28;20920;-68
2021/12/09 07:29:52;;;;;;;59.97;27.70;;;1.10;99.90;;;;;;5117948;28;20464;-66
2021/12/09 07:32:19;;;;;;;61.70;29.40;;;1.10;99.90;;;;;;5118041;28;20463;-68
2021/12/09 07:34:45;;;;;;;62.27;32.33;;;1.10;99.90;;;;;;5118026;28;20488;-68
2021/12/09 07:37:12;;;;;;;52.70;28.60;;;1.10;99.90;;;;;;5117651;28;20468;-67
2021/12/09 07:39:39;;;;;;;59.70;31.27;;;1.00;99.90;;;;;;5117991;28;20448;-68
2021/12/09 07:42:06;;;;;;;60.43;29.30;;;1.00;99.90;;;;;;5117778;28;20513;-68
2021/12/09 07:44:33;;;;;;;64.40;30.73;;;1.00;99.90;;;;;;5117628;28;20483;-68
2021/12/09 07:47:01;;;;;;;61.70;30.90;;;1.10;99.90;;;;;;5118326;28;20749;-68
2021/12/09 07:49:28;;;;;;;63.07;30.50;;;1.10;99.90;;;;;;5117669;28;20530;-68
2021/12/09 07:51:55;;;;;;;64.33;30.70;;;1.10;99.90;;;;;;5117614;28;20946;-68
2021/12/09 07:54:22;;;;;;;58.67;30.30;;;1.10;99.90;;;;;;5117107;28;21015;-68
2021/12/09 07:56:49;;;;;;;58.93;30.67;;;1.10;99.90;;;;;;5117716;28;20448;-69
2021/12/09 07:59:16;;;;;;;62.90;30.93;;;1.10;99.90;;;;;;5117087;28;20517;-69
2021/12/09 08:01:43;;;;;;;60.20;31.00;;;1.10;99.90;;;;;;5117320;28;20460;-69
2021/12/09 08:04:11;;;;;;;68.70;30.77;;;1.10;99.90;;;;;;5117090;28;20452;-69
2021/12/09 08:06:40;;;;;;;60.90;28.80;;;1.10;99.90;;;;;;5117396;28;20775;-68
2021/12/09 08:09:09;;;;;;;61.13;30.37;;;1.10;99.90;;;;;;5116747;28;20548;-69
2021/12/09 08:11:37;;;;;;;70.50;30.23;;;1.10;99.90;;;;;;5116931;28;20452;-68
2021/12/09 08:14:05;;;;;;;56.83;28.73;;;1.10;99.90;;;;;;5117295;28;20864;-68
2021/12/09 08:16:37;;;;;;;60.60;29.40;;;1.10;99.90;;;;;;5117332;28;21045;-68
2021/12/09 08:19:04;;;;;;;62.73;31.60;;;1.10;99.90;;;;;;5115641;28;20976;-68
2021/12/09 08:21:35;;;;;;;62.80;32.20;;;1.00;99.90;;;;;;5116975;28;20488;-69
2021/12/09 08:24:02;;;;;;;68.97;32.00;;;1.10;99.90;;;;;;5117326;28;20548;-68
2021/12/09 08:26:29;;;;;;;69.23;31.73;;;1.10;99.90;;;;;;5116741;28;20761;-69
2021/12/09 08:28:55;;;;;;;62.07;31.90;;;1.20;99.90;;;;;;5116634;28;20574;-68
2021/12/09 08:31:22;;;;;;;66.13;30.90;;;1.20;99.90;;;;;;5116942;28;20529;-68
2021/12/09 08:33:49;;;;;;;67.17;30.43;;;1.20;99.90;;;;;;5116504;28;20799;-68
2021/12/09 08:36:16;;;;;;;61.67;30.70;;;1.20;99.90;;;;;;5116813;28;20460;-69
2021/12/09 08:38:44;;;;;;;64.67;32.30;;;1.20;99.90;;;;;;5116898;28;20457;-69
2021/12/09 08:41:14;;;;;;;58.93;29.53;;;1.20;99.90;;;;;;5117184;28;20461;-68
2021/12/09 08:43:41;;;;;;;58.77;30.37;;;1.30;99.90;;;;;;5116705;28;20487;-68
2021/12/09 08:46:08;;;;;;;67.70;31.90;;;1.30;99.90;;;;;;5116610;28;20463;-69
2021/12/09 08:48:35;;;;;;;64.60;30.27;;;1.30;99.90;;;;;;5116358;28;20455;-69
2021/12/09 08:51:02;;;;;;;68.77;33.57;;;1.40;99.90;;;;;;5116582;28;20456;-69
2021/12/09 08:53:28;;;;;;;64.47;31.13;;;1.40;99.90;;;;;;5116326;28;20480;-70
2021/12/09 08:55:59;;;;;;;65.90;32.27;;;1.30;99.90;;;;;;5116370;28;20456;-68
2021/12/09 08:58:28;;;;;;;58.57;31.60;;;1.30;99.90;;;;;;5116602;28;20539;-68
2021/12/09 09:00:58;;;;;;;64.00;33.53;;;1.20;99.90;;;;;;5116315;28;20456;-71
2021/12/09 09:03:26;;;;;;;58.53;31.97;;;1.20;99.90;;;;;;5116542;28;20437;-69
2021/12/09 09:05:53;;;;;;;57.87;29.50;;;1.20;99.90;;;;;;5116702;28;20456;-68
2021/12/09 09:08:20;;;;;;;66.17;31.77;;;1.20;99.90;;;;;;5116622;28;20514;-68
2021/12/09 09:10:49;;;;;;;70.87;33.60;;;1.30;99.90;;;;;;5115948;28;20453;-69
2021/12/09 09:13:17;;;;;;;67.97;32.17;;;1.30;99.90;;;;;;5116592;28;20462;-69
2021/12/09 09:15:48;;;;;;;64.53;31.50;;;1.40;99.90;;;;;;5115903;28;20785;-69
2021/12/09 09:18:15;;;;;;;62.43;32.13;;;1.40;99.90;;;;;;5116629;28;20441;-68
2021/12/09 09:20:42;;;;;;;72.73;36.03;;;1.40;99.90;;;;;;5116199;28;20471;-70
2021/12/09 09:23:11;;;;;;;70.67;36.93;;;1.50;99.90;;;;;;5115848;28;20462;-71
2021/12/09 09:25:38;;;;;;;67.90;32.23;;;1.50;99.90;;;;;;5115941;28;20893;-70
2021/12/09 09:28:05;;;;;;;63.10;31.77;;;1.60;99.90;;;;;;5117107;28;20476;-68
2021/12/09 09:30:36;;;;;;;61.73;32.23;;;1.60;99.90;;;;;;5115116;28;20774;-69
2021/12/09 09:33:06;;;;;;;62.53;31.20;;;1.50;99.90;;;;;;5115463;28;20468;-70
2021/12/09 09:35:33;;;;;;;68.23;32.87;;;1.60;99.90;;;;;;5115274;28;20584;-69
2021/12/09 09:38:00;;;;;;;66.60;32.90;;;1.60;99.90;;;;;;5115477;28;20467;-69
2021/12/09 09:40:38;;;;;;;57.70;31.03;;;1.70;99.90;;;;;;5115342;28;20452;-69
2021/12/09 09:43:14;;;;;;;60.10;30.97;;;1.70;99.90;;;;;;5115246;28;20928;-70
2021/12/09 09:45:42;;;;;;;69.57;32.13;;;1.70;99.90;;;;;;5115429;28;20456;-69
2021/12/09 09:48:11;;;;;;;67.97;32.13;;;1.80;99.90;;;;;;5115359;28;20509;-70
2021/12/09 09:50:38;;;;;;;59.97;31.17;;;1.80;99.90;;;;;;5115649;28;20517;-69
2021/12/09 09:53:08;;;;;;;68.50;33.10;;;1.80;99.90;;;;;;5115206;28;20452;-69
2021/12/09 09:55:35;;;;;;;61.37;31.83;;;1.80;99.90;;;;;;5115453;28;20480;-70
2021/12/09 09:58:02;;;;;;;67.33;31.43;;;1.80;99.90;;;;;;5114886;28;20487;-69
2021/12/09 10:00:29;;;;;;;60.50;30.87;;;1.90;99.90;;;;;;5115864;28;20457;-69
2021/12/09 10:03:02;;;;;;;56.07;29.53;;;2.00;99.90;;;;;;5115385;28;20460;-69
2021/12/09 10:05:36;;;;;;;59.20;29.47;;;2.00;99.90;;;;;;5115291;28;20523;-69
2021/12/09 10:08:04;;;;;;;57.07;30.80;;;2.10;99.90;;;;;;5115343;28;20447;-69
2021/12/09 10:10:31;;;;;;;56.77;30.33;;;2.00;99.90;;;;;;5115431;28;20462;-69
2021/12/09 10:13:01;;;;;;;57.70;31.57;;;2.10;99.90;;;;;;5115349;28;20513;-69
2021/12/09 10:15:40;;;;;;;57.53;31.43;;;2.10;99.90;;;;;;5114701;28;20460;-68
2021/12/09 10:18:10;;;;;;;53.97;29.17;;;2.00;99.90;;;;;;5115517;28;20479;-69
2021/12/09 10:21:04;;;;;;;50.63;27.37;;;1.90;99.90;;;;;;5115145;28;20452;-69
2021/12/09 10:23:35;;;;;;;56.27;28.97;;;1.70;99.90;;;;;;5096823;28;20463;-70
2021/12/09 10:26:22;;;;;;;53.17;30.10;;;1.70;99.90;;;;;;5115585;28;20859;-68
2021/12/09 10:28:53;;;;;;;60.43;29.20;;;1.70;99.90;;;;;;5115342;28;20443;-68
2021/12/09 10:31:25;;;;;;;57.10;30.13;;;1.70;99.90;;;;;;5114815;28;20437;-68
2021/12/09 10:34:15;;;;;;;63.30;30.40;;;1.80;99.90;;;;;;5114892;28;20963;-69
2021/12/09 10:37:04;;;;;;;53.60;29.17;;;1.80;99.90;;;;;;5115103;28;20436;-68
2021/12/09 10:39:43;;;;;;;53.13;29.77;;;1.90;99.90;;;;;;5115016;28;20448;-68
2021/12/09 10:42:13;;;;;;;68.67;30.63;;;1.80;99.90;;;;;;5115771;28;20892;-68
2021/12/09 10:44:51;;;;;;;59.13;30.30;;;1.80;99.90;;;;;;5118611;28;20499;-69
2021/12/09 10:47:34;;;;;;;62.10;29.07;;;1.90;99.90;;;;;;5119420;28;20447;-69
2021/12/09 10:50:09;;;;;;;56.60;30.30;;;1.90;99.90;;;;;;5119095;28;20443;-69
2021/12/09 10:52:43;;;;;;;52.97;28.57;;;2.00;99.90;;;;;;5119800;28;20444;-69
2021/12/09 10:55:16;;;;;;;106.23;56.90;;;2.10;99.90;;;;;;5119821;28;20471;-70
2021/12/09 10:57:44;;;;;;;58.87;31.43;;;2.20;99.90;;;;;;5119666;28;20785;-68
2021/12/09 11:00:28;;;;;;;63.33;31.43;;;2.20;99.90;;;;;;5118987;28;20451;-70
2021/12/09 11:03:04;;;;;;;55.67;29.37;;;2.30;99.90;;;;;;5119165;28;20436;-69
2021/12/09 11:05:35;;;;;;;58.20;30.53;;;2.30;99.90;;;;;;5119088;28;20436;-68
2021/12/09 11:08:17;;;;;;;57.63;30.67;;;2.20;99.90;;;;;;5118664;28;20436;-69
2021/12/09 11:10:47;;;;;;;61.20;30.10;;;2.20;99.90;;;;;;5118595;28;20548;-68
2021/12/09 11:13:15;;;;;;;56.73;28.97;;;2.30;99.90;;;;;;5119178;28;20444;-69
2021/12/09 11:15:49;;;;;;;51.37;27.97;;;2.30;99.90;;;;;;5119536;27;20805;-69
2021/12/09 11:18:43;;;;;;;53.20;29.80;;;2.30;99.90;;;;;;5121628;28;20889;-70
2021/12/09 11:21:17;;;;;;;59.33;29.80;;;2.30;99.90;;;;;;5102624;28;20463;-69
2021/12/09 11:23:48;;;;;;;56.27;28.40;;;2.30;99.90;;;;;;5121661;28;20495;-69
2021/12/09 11:26:54;;;;;;;52.73;28.97;;;2.30;99.90;;;;;;5120404;28;20870;-68
2021/12/09 11:29:24;;;;;;;50.17;27.57;;;2.30;99.90;;;;;;5077987;28;20551;-69
2021/12/09 11:32:00;;;;;;;62.00;28.17;;;2.40;99.90;;;;;;5118137;28;20471;-68
2021/12/09 11:34:32;;;;;;;52.20;28.00;;;2.40;99.90;;;;;;5120226;28;20460;-69
2021/12/09 11:37:07;;;;;;;52.90;27.50;;;2.20;99.90;;;;;;5120157;28;20437;-70
2021/12/09 11:39:37;;;;;;;56.07;29.57;;;2.20;99.90;;;;;;5119942;28;20474;-69
2021/12/09 11:42:15;;;;;;;53.60;29.97;;;2.10;99.90;;;;;;5119420;28;20456;-69
2021/12/09 11:44:43;;;;;;;48.70;25.93;;;1.90;99.90;;;;;;5119680;28;20502;-70
2021/12/09 11:47:10;;;;;;;51.47;28.10;;;2.00;99.90;;;;;;5118084;28;20459;-68
2021/12/09 11:49:37;;;;;;;53.90;28.60;;;2.10;99.90;;;;;;5118392;28;20456;-69
2021/12/09 11:52:06;;;;;;;50.53;27.73;;;2.20;99.90;;;;;;5118031;28;20463;-69
2021/12/09 11:54:33;;;;;;;50.17;26.90;;;2.20;99.90;;;;;;5117511;28;20952;-69
2021/12/09 12:11:38;;;;;;;50.97;28.00;;;2.30;99.90;;;;;;5054461;28;20454;-69
2021/12/09 12:14:15;;;;;;;53.30;27.10;;;2.40;99.90;;;;;;5054751;28;20466;-69
2021/12/09 12:16:57;;;;;;;51.80;27.47;;;2.40;99.90;;;;;;5089921;28;20464;-69
2021/12/09 12:19:54;;;;;;;47.97;25.97;;;2.50;99.90;;;;;;5117549;28;20505;-69
2021/12/09 12:22:45;;;;;;;50.40;27.53;;;2.50;99.90;;;;;;5117034;28;20456;-69
2021/12/09 12:28:36;;;;;;;53.67;27.33;;;2.60;99.90;;;;;;5104640;28;20444;-69
2021/12/09 12:34:14;;;;;;;49.27;28.70;;;2.40;99.90;;;;;;5101341;28;20514;-68
2021/12/09 12:37:18;;;;;;;50.70;28.00;;;2.40;99.90;;;;;;5117617;28;20437;-69
2021/12/09 12:40:03;;;;;;;52.77;29.20;;;2.50;99.90;;;;;;5117921;28;20920;-69
2021/12/09 12:42:48;;;;;;;46.83;27.70;;;2.50;99.90;;;;;;5117507;28;20475;-69
2021/12/09 12:45:37;;;;;;;51.53;28.90;;;2.50;99.90;;;;;;5117943;28;20513;-69
2021/12/09 12:48:45;;;;;;;51.97;29.10;;;2.30;99.90;;;;;;5118318;28;20830;-69
2021/12/09 12:51:25;;;;;;;55.20;28.33;;;2.10;99.90;;;;;;5118655;28;20443;-69
2021/12/09 12:53:55;;;;;;;55.37;27.70;;;2.10;99.90;;;;;;5117893;28;20443;-69
2021/12/09 12:56:27;;;;;;;58.27;29.07;;;2.00;99.90;;;;;;5117334;28;20480;-68
2021/12/09 12:59:20;;;;;;;50.40;27.77;;;2.00;99.90;;;;;;5117335;28;20441;-69
2021/12/09 13:02:16;;;;;;;52.53;30.63;;;1.90;99.90;;;;;;5116301;28;20456;-69
2021/12/09 13:04:56;;;;;;;52.77;26.57;;;1.70;99.90;;;;;;5116006;28;20516;-69
2021/12/09 13:07:33;;;;;;;54.47;28.87;;;1.70;99.90;;;;;;5116417;28;20493;-69
2021/12/09 13:10:30;;;;;;;59.10;30.73;;;1.50;99.90;;;;;;5116274;28;20436;-68
2021/12/09 13:13:08;;;;;;;52.23;30.00;;;1.50;99.90;;;;;;5116576;28;20916;-69